createdAt,value
2019-02-02T00:01:20.209Z,0.30
2019-02-02T00:03:48.357Z,0.20
2019-02-02T00:06:17.616Z,0.20
2019-02-02T00:08:45.938Z,0.30
2019-02-02T00:11:14.090Z,0.80
2019-02-02T00:13:42.320Z,1.30
2019-02-02T00:16:10.411Z,1.70
2019-02-02T00:18:38.496Z,1.70
2019-02-02T00:21:06.692Z,1.80
2019-02-02T00:23:34.850Z,1.70
2019-02-02T00:26:03.396Z,1.50
2019-02-02T00:28:31.529Z,1.20
2019-02-02T00:30:59.683Z,1.00
2019-02-02T00:33:27.798Z,0.60
2019-02-02T00:35:56.045Z,0.30
2019-02-02T00:38:24.121Z,0.20
2019-02-02T00:40:52.393Z,0.10
2019-02-02T00:43:21.185Z,0.10
2019-02-02T00:45:50.801Z,0.00
2019-02-02T00:48:18.934Z,-0.10
2019-02-02T00:50:47.231Z,-0.10
2019-02-02T00:53:15.611Z,0.00
2019-02-02T00:55:43.761Z,0.00
2019-02-02T00:58:11.959Z,0.10
2019-02-02T01:00:41.634Z,0.00
2019-02-02T01:03:09.917Z,0.00
2019-02-02T01:05:38.165Z,-0.20
2019-02-02T01:08:06.501Z,-0.20
2019-02-02T01:10:35.414Z,-0.20
2019-02-02T01:13:05.540Z,-0.10
2019-02-02T01:15:33.900Z,0.00
2019-02-02T01:18:03.996Z,0.10
2019-02-02T01:20:32.234Z,0.00
2019-02-02T01:23:02.470Z,0.00
2019-02-02T01:25:30.825Z,0.00
2019-02-02T01:28:05.313Z,-0.10
2019-02-02T01:30:29.175Z,-0.10
2019-02-02T01:32:57.231Z,-0.20
2019-02-02T01:35:25.472Z,-0.20
2019-02-02T01:37:53.662Z,-0.10
2019-02-02T01:40:22.624Z,0.00
2019-02-02T01:42:50.818Z,0.00
2019-02-02T01:45:22.519Z,0.00
2019-02-02T01:47:50.880Z,0.10
2019-02-02T01:50:22.475Z,0.10
2019-02-02T01:52:53.048Z,0.10
2019-02-02T01:55:21.263Z,0.10
2019-02-02T01:57:49.663Z,0.00
2019-02-02T02:00:28.283Z,0.00
2019-02-02T02:02:56.600Z,0.00
2019-02-02T02:05:25.064Z,0.00
2019-02-02T02:07:53.236Z,0.00
2019-02-02T02:10:21.689Z,0.00
2019-02-02T02:12:50.014Z,-0.10
2019-02-02T02:15:18.698Z,-0.10
2019-02-02T02:17:47.130Z,-0.10
2019-02-02T02:20:16.055Z,-0.20
2019-02-02T02:22:45.221Z,-0.20
2019-02-02T02:25:16.306Z,-0.20
2019-02-02T02:27:44.816Z,-0.30
2019-02-02T02:30:18.612Z,-0.30
2019-02-02T02:32:46.942Z,-0.30
2019-02-02T02:35:16.325Z,-0.40
2019-02-02T02:37:45.515Z,-0.50
2019-02-02T02:40:18.112Z,-0.40
2019-02-02T02:42:47.633Z,-0.40
2019-02-02T02:45:16.021Z,-0.40
2019-02-02T02:47:44.283Z,-0.50
2019-02-02T02:50:15.006Z,-0.40
2019-02-02T02:52:43.248Z,-0.50
2019-02-02T02:55:12.352Z,-0.40
2019-02-02T02:57:40.548Z,-0.40
2019-02-02T03:00:19.120Z,-0.50
2019-02-02T03:02:47.280Z,-0.40
2019-02-02T03:05:16.545Z,-0.40
2019-02-02T03:07:45.276Z,-0.30
2019-02-02T03:10:16.481Z,-0.40
2019-02-02T03:12:44.802Z,-0.30
2019-02-02T03:15:14.961Z,-0.40
2019-02-02T03:17:43.584Z,-0.40
2019-02-02T03:20:13.258Z,-0.30
2019-02-02T03:22:41.482Z,-0.30
2019-02-02T03:25:13.599Z,-0.30
2019-02-02T03:27:41.927Z,-0.30
2019-02-02T03:30:13.681Z,-0.30
2019-02-02T03:32:42.118Z,-0.30
2019-02-02T03:35:11.524Z,-0.40
2019-02-02T03:37:39.602Z,-0.40
2019-02-02T03:40:12.457Z,-0.40
2019-02-02T03:42:40.738Z,-0.50
2019-02-02T03:45:10.036Z,-0.50
2019-02-02T03:47:38.523Z,-0.50
2019-02-02T03:50:08.003Z,-0.60
2019-02-02T03:52:36.214Z,-0.60
2019-02-02T03:55:05.309Z,-0.50
2019-02-02T03:57:36.097Z,-0.50
2019-02-02T04:00:06.767Z,-0.50
2019-02-02T04:02:34.973Z,-0.50
2019-02-02T04:05:05.810Z,-0.50
2019-02-02T04:07:34.147Z,-0.40
2019-02-02T04:10:02.430Z,-0.50
2019-02-02T04:12:30.568Z,-0.50
2019-02-02T04:14:58.666Z,-0.50
2019-02-02T04:17:26.692Z,-0.40
2019-02-02T04:19:54.792Z,-0.50
2019-02-02T04:22:22.978Z,-0.60
2019-02-02T04:24:51.062Z,-0.60
2019-02-02T04:27:19.203Z,-0.60
2019-02-02T04:29:47.318Z,-0.60
2019-02-02T04:32:15.677Z,-0.70
2019-02-02T04:34:43.951Z,-0.60
2019-02-02T04:37:12.168Z,-0.60
2019-02-02T04:39:40.442Z,-0.60
2019-02-02T04:42:11.332Z,-0.50
2019-02-02T04:44:39.504Z,-0.60
2019-02-02T04:47:07.634Z,-0.60
2019-02-02T04:49:35.956Z,-0.60
2019-02-02T04:52:04.283Z,-0.60
2019-02-02T04:54:34.244Z,-0.70
2019-02-02T04:57:02.534Z,-0.60
2019-02-02T04:59:32.978Z,-0.60
2019-02-02T05:02:01.585Z,-0.60
2019-02-02T05:04:30.204Z,-0.60
2019-02-02T05:06:58.350Z,-0.60
2019-02-02T05:09:26.516Z,-0.50
2019-02-02T05:11:54.848Z,-0.50
2019-02-02T05:14:23.023Z,-0.40
2019-02-02T05:16:51.177Z,-0.40
2019-02-02T05:19:19.254Z,-0.40
2019-02-02T05:21:47.469Z,-0.40
2019-02-02T05:24:15.518Z,-0.40
2019-02-02T05:26:43.621Z,-0.40
2019-02-02T05:29:11.790Z,-0.30
2019-02-02T05:31:40.098Z,-0.30
2019-02-02T05:34:08.369Z,-0.30
2019-02-02T05:36:36.526Z,-0.20
2019-02-02T05:39:08.118Z,-0.30
2019-02-02T05:41:36.675Z,-0.20
2019-02-02T05:44:05.323Z,-0.20
2019-02-02T05:46:33.488Z,-0.20
2019-02-02T05:49:02.084Z,-0.20
2019-02-02T05:51:30.342Z,-0.10
2019-02-02T05:53:58.596Z,-0.10
2019-02-02T05:56:26.779Z,0.00
2019-02-02T05:58:55.092Z,-0.10
2019-02-02T06:01:23.947Z,-0.20
2019-02-02T06:03:52.123Z,-0.10
2019-02-02T06:06:21.424Z,-0.10
2019-02-02T06:08:49.737Z,-0.10
2019-02-02T06:11:17.794Z,-0.10
2019-02-02T06:13:46.572Z,-0.10
2019-02-02T06:16:14.842Z,0.00
2019-02-02T06:18:42.902Z,0.00
2019-02-02T06:21:12.363Z,0.00
2019-02-02T06:23:40.406Z,0.10
2019-02-02T06:26:08.513Z,0.10
2019-02-02T06:28:36.515Z,0.10
2019-02-02T06:31:05.020Z,0.10
2019-02-02T06:33:33.083Z,0.10
2019-02-02T06:36:03.536Z,0.10
2019-02-02T06:38:31.138Z,0.10
2019-02-02T06:40:59.391Z,0.10
2019-02-02T06:43:30.277Z,0.10
2019-02-02T06:45:58.050Z,0.10
2019-02-02T06:48:26.273Z,0.10
2019-02-02T06:50:56.322Z,0.10
2019-02-02T06:53:25.748Z,0.20
2019-02-02T06:55:54.474Z,0.10
2019-02-02T06:58:22.943Z,0.10
2019-02-02T07:00:50.992Z,0.10
2019-02-02T07:03:20.527Z,0.20
2019-02-02T07:05:48.646Z,0.10
2019-02-02T07:08:18.887Z,0.20
2019-02-02T07:10:47.178Z,0.20
2019-02-02T07:13:15.254Z,0.20
2019-02-02T07:15:43.379Z,0.20
2019-02-02T07:18:11.448Z,0.20
2019-02-02T07:20:39.583Z,0.10
2019-02-02T07:23:07.750Z,0.20
2019-02-02T07:25:36.081Z,0.20
2019-02-02T07:28:04.310Z,0.20
2019-02-02T07:30:32.499Z,0.30
2019-02-02T07:33:00.719Z,0.30
2019-02-02T07:35:29.132Z,0.40
2019-02-02T07:37:57.398Z,0.40
2019-02-02T07:40:26.586Z,0.40
2019-02-02T07:42:54.665Z,0.40
2019-02-02T07:45:26.122Z,0.40
2019-02-02T07:47:54.545Z,0.40
2019-02-02T07:50:22.793Z,0.50
2019-02-02T07:52:50.909Z,0.50
2019-02-02T07:55:19.477Z,0.50
2019-02-02T07:57:47.777Z,0.60
2019-02-02T08:00:41.753Z,0.60
2019-02-02T08:03:11.771Z,0.60
2019-02-02T08:05:39.921Z,0.60
2019-02-02T08:08:09.245Z,0.60
2019-02-02T08:10:37.318Z,0.70
2019-02-02T08:13:07.183Z,0.70
2019-02-02T08:15:35.720Z,0.70
2019-02-02T08:18:07.732Z,0.70
2019-02-02T08:20:35.791Z,0.70
2019-02-02T08:23:04.694Z,0.70
2019-02-02T08:25:32.898Z,0.70
2019-02-02T08:28:01.011Z,0.80
2019-02-02T08:30:31.758Z,0.80
2019-02-02T08:32:59.942Z,0.80
2019-02-02T08:35:28.156Z,0.90
2019-02-02T08:37:56.276Z,0.90
2019-02-02T08:40:24.523Z,0.80
2019-02-02T08:42:52.574Z,0.80
2019-02-02T08:45:20.615Z,0.90
2019-02-02T08:47:48.733Z,0.90
2019-02-02T08:50:32.047Z,1.00
2019-02-02T08:53:00.300Z,1.00
2019-02-02T08:55:28.838Z,1.00
2019-02-02T08:57:59.181Z,1.10
2019-02-02T09:00:27.843Z,1.00
2019-02-02T09:02:56.069Z,1.00
2019-02-02T09:05:24.666Z,1.00
2019-02-02T09:07:52.983Z,1.10
2019-02-02T09:10:23.751Z,1.10
2019-02-02T09:12:51.955Z,1.10
2019-02-02T09:15:20.246Z,1.20
2019-02-02T09:17:48.533Z,1.20
2019-02-02T09:20:16.757Z,1.20
2019-02-02T09:22:45.791Z,1.20
2019-02-02T09:25:15.155Z,1.30
2019-02-02T09:27:43.234Z,1.30
2019-02-02T09:30:17.955Z,1.40
2019-02-02T09:32:46.092Z,1.50
2019-02-02T09:35:14.497Z,1.60
2019-02-02T09:37:42.629Z,1.70
2019-02-02T09:40:13.104Z,1.70
2019-02-02T09:42:43.366Z,1.70
2019-02-02T09:45:13.562Z,1.80
2019-02-02T09:47:42.046Z,1.80
2019-02-02T09:50:13.503Z,1.70
2019-02-02T09:52:43.144Z,1.70
2019-02-02T09:55:13.967Z,1.70
2019-02-02T09:57:43.235Z,1.70
2019-02-02T10:00:16.241Z,1.80
2019-02-02T10:02:46.053Z,1.90
2019-02-02T10:05:14.578Z,1.90
2019-02-02T10:07:42.843Z,2.00
2019-02-02T10:10:15.391Z,2.10
2019-02-02T10:12:43.576Z,2.10
2019-02-02T10:15:12.137Z,2.10
2019-02-02T10:17:40.280Z,2.10
2019-02-02T10:20:11.579Z,2.00
2019-02-02T10:22:39.743Z,2.00
2019-02-02T10:25:09.970Z,2.00
2019-02-02T10:27:38.125Z,2.10
2019-02-02T10:30:13.798Z,2.00
2019-02-02T10:32:41.896Z,2.00
2019-02-02T10:35:10.345Z,2.00
2019-02-02T10:37:39.681Z,2.00
2019-02-02T10:40:09.398Z,2.00
2019-02-02T10:42:37.472Z,2.10
2019-02-02T10:45:09.585Z,2.10
2019-02-02T10:47:37.648Z,2.20
2019-02-02T10:50:08.353Z,2.30
2019-02-02T10:52:36.468Z,2.30
2019-02-02T10:55:05.538Z,2.30
2019-02-02T10:57:33.627Z,2.30
2019-02-02T11:00:02.094Z,2.30
2019-02-02T11:02:31.374Z,2.30
2019-02-02T11:04:59.567Z,2.30
2019-02-02T11:07:27.815Z,2.30
2019-02-02T11:09:55.997Z,2.30
2019-02-02T11:12:24.418Z,2.30
2019-02-02T11:14:52.738Z,2.30
2019-02-02T11:17:20.969Z,2.40
2019-02-02T11:19:49.145Z,2.40
2019-02-02T11:22:17.737Z,2.50
2019-02-02T11:24:45.902Z,2.50
2019-02-02T11:27:14.283Z,2.60
2019-02-02T11:29:42.458Z,2.60
2019-02-02T11:32:10.715Z,2.60
2019-02-02T11:34:38.856Z,2.60
2019-02-02T11:37:07.052Z,2.60
2019-02-02T11:39:36.125Z,2.50
2019-02-02T11:42:04.755Z,2.60
2019-02-02T11:44:32.976Z,2.50
2019-02-02T11:47:02.229Z,2.50
2019-02-02T11:49:30.444Z,2.50
2019-02-02T11:51:58.732Z,2.60
2019-02-02T11:54:26.962Z,2.60
2019-02-02T11:56:55.065Z,2.50
2019-02-02T11:59:23.356Z,2.50
2019-02-02T12:01:51.458Z,2.50
2019-02-02T12:04:21.959Z,2.60
2019-02-02T12:06:50.287Z,2.60
2019-02-02T12:09:18.362Z,2.50
2019-02-02T12:11:46.483Z,2.50
2019-02-02T12:14:14.589Z,2.50
2019-02-02T12:16:43.772Z,2.60
2019-02-02T12:19:12.292Z,2.70
2019-02-02T12:21:40.479Z,2.70
2019-02-02T12:24:15.907Z,2.70
2019-02-02T12:26:38.813Z,2.80
2019-02-02T12:29:08.002Z,2.80
2019-02-02T12:31:36.198Z,2.90
2019-02-02T12:34:04.597Z,2.90
2019-02-02T12:36:32.784Z,2.90
2019-02-02T12:39:02.111Z,2.90
2019-02-02T12:41:30.636Z,2.90
2019-02-02T12:43:59.086Z,2.90
2019-02-02T12:46:27.295Z,3.30
2019-02-02T12:48:55.628Z,3.20
2019-02-02T12:51:23.962Z,3.10
2019-02-02T12:53:55.611Z,3.00
2019-02-02T12:56:22.687Z,3.00
2019-02-02T12:58:50.888Z,3.00
2019-02-02T13:01:19.009Z,3.00
2019-02-02T13:03:47.174Z,3.00
2019-02-02T13:06:15.336Z,3.00
2019-02-02T13:08:46.117Z,3.00
2019-02-02T13:11:15.904Z,3.10
2019-02-02T13:13:43.995Z,3.10
2019-02-02T13:16:12.350Z,3.10
2019-02-02T13:18:40.643Z,3.10
2019-02-02T13:21:09.178Z,3.10
2019-02-02T13:23:37.467Z,3.10
2019-02-02T13:26:06.787Z,3.10
2019-02-02T13:28:34.940Z,3.10
2019-02-02T13:31:03.193Z,3.10
2019-02-02T13:33:31.367Z,3.10
2019-02-02T13:35:59.622Z,3.00
2019-02-02T13:38:27.696Z,3.00
2019-02-02T13:40:55.747Z,3.00
2019-02-02T13:43:23.987Z,3.00
2019-02-02T13:45:52.062Z,3.10
2019-02-02T13:48:20.285Z,3.00
2019-02-02T13:50:48.696Z,3.10
2019-02-02T13:53:16.946Z,3.10
2019-02-02T13:55:46.348Z,3.10
2019-02-02T13:58:14.774Z,3.10
2019-02-02T14:00:42.932Z,3.10
2019-02-02T14:03:11.112Z,3.10
2019-02-02T14:05:40.764Z,3.10
2019-02-02T14:08:09.138Z,3.20
2019-02-02T14:10:37.477Z,3.20
2019-02-02T14:13:05.808Z,3.20
2019-02-02T14:15:33.933Z,3.20
2019-02-02T14:18:02.128Z,3.20
2019-02-02T14:20:30.228Z,3.10
2019-02-02T14:22:58.329Z,3.00
2019-02-02T14:25:26.485Z,3.10
2019-02-02T14:27:54.873Z,3.10
2019-02-02T14:30:24.906Z,3.10
2019-02-02T14:32:54.799Z,3.10
2019-02-02T14:35:26.352Z,3.20
2019-02-02T14:37:54.730Z,3.20
2019-02-02T14:40:23.174Z,3.10
2019-02-02T14:42:51.946Z,3.10
2019-02-02T14:45:22.016Z,3.10
2019-02-02T14:47:50.820Z,3.10
2019-02-02T14:50:23.441Z,3.10
2019-02-02T14:52:52.572Z,3.10
2019-02-02T14:55:26.552Z,3.10
2019-02-02T14:57:55.172Z,3.10
2019-02-02T15:00:26.287Z,3.20
2019-02-02T15:02:54.404Z,3.20
2019-02-02T15:05:22.695Z,3.20
2019-02-02T15:07:52.668Z,3.20
2019-02-02T15:10:22.145Z,3.10
2019-02-02T15:12:50.830Z,3.10
2019-02-02T15:15:19.228Z,3.10
2019-02-02T15:17:47.985Z,3.10
2019-02-02T15:20:22.325Z,3.20
2019-02-02T15:22:51.110Z,3.20
2019-02-02T15:25:19.329Z,3.20
2019-02-02T15:27:48.489Z,3.20
2019-02-02T15:30:18.386Z,3.20
2019-02-02T15:32:46.793Z,3.20
2019-02-02T15:35:14.948Z,3.20
2019-02-02T15:37:43.278Z,3.10
2019-02-02T15:40:14.160Z,3.10
2019-02-02T15:42:42.333Z,3.10
2019-02-02T15:45:15.335Z,3.10
2019-02-02T15:47:45.060Z,3.10
2019-02-02T15:50:17.370Z,3.10
2019-02-02T15:52:45.722Z,3.10
2019-02-02T15:55:16.660Z,3.00
2019-02-02T15:57:47.231Z,3.00
2019-02-02T16:00:22.230Z,3.00
2019-02-02T16:02:50.546Z,3.00
2019-02-02T16:05:19.044Z,2.90
2019-02-02T16:07:47.221Z,2.80
2019-02-02T16:10:18.734Z,2.80
2019-02-02T16:12:47.350Z,2.80
2019-02-02T16:15:15.848Z,2.70
2019-02-02T16:17:44.138Z,2.60
2019-02-02T16:20:17.264Z,2.60
2019-02-02T16:22:47.916Z,2.60
2019-02-02T16:25:17.585Z,2.60
2019-02-02T16:27:45.799Z,2.60
2019-02-02T16:30:21.064Z,2.70
2019-02-02T16:32:51.207Z,2.90
2019-02-02T16:35:23.675Z,2.90
2019-02-02T16:37:52.596Z,2.80
2019-02-02T16:40:23.351Z,2.70
2019-02-02T16:42:53.525Z,2.60
2019-02-02T16:45:24.453Z,2.60
2019-02-02T16:47:54.279Z,2.60
2019-02-02T16:50:23.781Z,2.60
2019-02-02T16:52:52.503Z,2.60
2019-02-02T16:55:20.650Z,2.50
2019-02-02T16:57:48.854Z,2.50
2019-02-02T17:00:29.345Z,2.50
2019-02-02T17:02:57.516Z,2.50
2019-02-02T17:05:25.742Z,2.40
2019-02-02T17:07:53.864Z,2.50
2019-02-02T17:10:30.923Z,2.50
2019-02-02T17:12:59.047Z,2.40
2019-02-02T17:15:27.341Z,2.40
2019-02-02T17:17:55.917Z,2.40
2019-02-02T17:20:32.859Z,2.50
2019-02-02T17:23:00.922Z,2.40
2019-02-02T17:25:29.246Z,2.40
2019-02-02T17:27:57.370Z,2.40
2019-02-02T17:30:25.660Z,2.40
2019-02-02T17:32:55.964Z,2.30
2019-02-02T17:35:24.579Z,2.40
2019-02-02T17:37:53.478Z,2.30
2019-02-02T17:40:26.624Z,2.30
2019-02-02T17:42:55.113Z,2.30
2019-02-02T17:45:23.608Z,2.20
2019-02-02T17:47:53.475Z,2.30
2019-02-02T17:50:23.906Z,2.20
2019-02-02T17:52:52.270Z,2.20
2019-02-02T17:55:20.978Z,2.20
2019-02-02T17:57:49.237Z,2.20
2019-02-02T18:00:36.810Z,2.20
2019-02-02T18:03:05.321Z,2.20
2019-02-02T18:05:33.471Z,2.20
2019-02-02T18:08:01.615Z,2.20
2019-02-02T18:10:29.831Z,2.10
2019-02-02T18:12:57.886Z,2.10
2019-02-02T18:15:26.035Z,2.10
2019-02-02T18:17:54.100Z,2.10
2019-02-02T18:20:22.250Z,2.10
2019-02-02T18:22:51.326Z,2.10
2019-02-02T18:25:19.547Z,2.10
2019-02-02T18:27:48.158Z,2.10
2019-02-02T18:30:18.750Z,2.10
2019-02-02T18:32:46.948Z,2.10
2019-02-02T18:35:15.989Z,2.10
2019-02-02T18:37:44.333Z,2.10
2019-02-02T18:40:14.644Z,2.10
2019-02-02T18:42:43.056Z,2.10
2019-02-02T18:45:15.213Z,2.10
2019-02-02T18:47:43.307Z,2.10
2019-02-02T18:50:14.180Z,2.10
2019-02-02T18:52:42.807Z,2.10
2019-02-02T18:55:25.830Z,2.20
2019-02-02T18:57:54.008Z,2.20
2019-02-02T19:00:23.171Z,2.20
2019-02-02T19:02:51.628Z,2.20
2019-02-02T19:05:19.878Z,2.10
2019-02-02T19:07:48.031Z,2.20
2019-02-02T19:10:22.496Z,2.20
2019-02-02T19:12:51.704Z,2.10
2019-02-02T19:15:19.937Z,2.10
2019-02-02T19:17:48.001Z,2.20
2019-02-02T19:20:18.116Z,2.20
2019-02-02T19:22:46.281Z,2.20
2019-02-02T19:25:14.511Z,2.20
2019-02-02T19:27:42.684Z,2.20
2019-02-02T19:30:28.711Z,2.20
2019-02-02T19:32:56.911Z,2.20
2019-02-02T19:35:25.267Z,2.20
2019-02-02T19:37:53.407Z,2.20
2019-02-02T19:40:21.508Z,2.10
2019-02-02T19:42:49.607Z,2.10
2019-02-02T19:45:20.343Z,2.20
2019-02-02T19:47:48.449Z,2.20
2019-02-02T19:50:23.454Z,2.20
2019-02-02T19:52:51.766Z,2.20
2019-02-02T19:55:20.611Z,2.20
2019-02-02T19:57:48.666Z,2.20
2019-02-02T20:00:23.016Z,2.20
2019-02-02T20:02:51.231Z,2.20
2019-02-02T20:05:28.197Z,2.20
2019-02-02T20:07:49.277Z,2.20
2019-02-02T20:10:17.781Z,2.20
2019-02-02T20:12:46.283Z,2.20
2019-02-02T20:15:16.835Z,2.20
2019-02-02T20:17:45.819Z,2.20
2019-02-02T20:20:17.949Z,2.10
2019-02-02T20:22:46.320Z,2.10
2019-02-02T20:25:14.616Z,2.10
2019-02-02T20:27:42.769Z,2.10
2019-02-02T20:30:20.251Z,2.20
2019-02-02T20:32:48.451Z,2.10
2019-02-02T20:35:16.640Z,2.00
2019-02-02T20:37:44.876Z,2.10
2019-02-02T20:40:18.536Z,2.10
2019-02-02T20:42:47.124Z,2.10
2019-02-02T20:45:18.540Z,2.10
2019-02-02T20:47:46.592Z,2.10
2019-02-02T20:50:16.834Z,2.20
2019-02-02T20:52:47.539Z,2.20
2019-02-02T20:55:20.024Z,2.10
2019-02-02T20:57:48.436Z,2.10
2019-02-02T21:00:19.974Z,2.10
2019-02-02T21:02:51.531Z,2.20
2019-02-02T21:05:19.720Z,2.20
2019-02-02T21:07:50.032Z,2.10
2019-02-02T21:10:22.403Z,2.10
2019-02-02T21:12:50.447Z,2.20
2019-02-02T21:15:18.824Z,2.10
2019-02-02T21:17:47.303Z,2.10
2019-02-02T21:20:18.253Z,2.10
2019-02-02T21:22:46.484Z,2.10
2019-02-02T21:25:15.512Z,2.00
2019-02-02T21:27:44.033Z,2.00
2019-02-02T21:30:27.083Z,2.00
2019-02-02T21:32:55.383Z,2.00
2019-02-02T21:35:23.802Z,2.10
2019-02-02T21:37:52.074Z,2.10
2019-02-02T21:40:23.177Z,2.00
2019-02-02T21:42:51.251Z,2.00
2019-02-02T21:45:19.430Z,2.10
2019-02-02T21:47:47.515Z,2.10
2019-02-02T21:50:18.886Z,2.10
2019-02-02T21:52:47.036Z,2.10
2019-02-02T21:55:18.134Z,2.00
2019-02-02T21:57:46.766Z,2.00
2019-02-02T22:00:25.034Z,2.00
2019-02-02T22:02:53.238Z,2.00
2019-02-02T22:05:21.496Z,2.00
2019-02-02T22:07:49.681Z,2.00
2019-02-02T22:10:18.057Z,2.00
2019-02-02T22:12:46.202Z,2.00
2019-02-02T22:15:17.918Z,2.00
2019-02-02T22:17:46.538Z,2.00
2019-02-02T22:20:15.202Z,2.00
2019-02-02T22:22:43.346Z,2.00
2019-02-02T22:25:17.591Z,2.00
2019-02-02T22:27:46.066Z,2.00
2019-02-02T22:30:20.328Z,1.90
2019-02-02T22:32:48.507Z,1.90
2019-02-02T22:35:16.552Z,1.90
2019-02-02T22:37:44.711Z,1.90
2019-02-02T22:40:18.521Z,2.00
2019-02-02T22:42:47.777Z,2.00
2019-02-02T22:45:17.716Z,2.00
2019-02-02T22:47:45.840Z,2.00
2019-02-02T22:50:17.074Z,2.00
2019-02-02T22:52:45.694Z,2.00
2019-02-02T22:55:14.453Z,2.00
2019-02-02T22:57:42.663Z,2.00
2019-02-02T23:00:55.651Z,2.00
2019-02-02T23:04:07.174Z,2.00
2019-02-02T23:06:52.520Z,2.10
2019-02-02T23:10:42.480Z,2.00
2019-02-02T23:14:20.973Z,2.00
2019-02-02T23:16:49.290Z,2.00
2019-02-02T23:19:17.427Z,1.90
2019-02-02T23:21:45.656Z,1.90
2019-02-02T23:24:13.772Z,1.90
2019-02-02T23:26:41.815Z,1.90
2019-02-02T23:29:09.925Z,1.80
2019-02-02T23:31:40.751Z,1.80
2019-02-02T23:34:09.039Z,1.70
2019-02-02T23:36:37.229Z,1.70
2019-02-02T23:39:08.234Z,1.70
2019-02-02T23:41:36.833Z,1.70
2019-02-02T23:44:05.071Z,1.80
2019-02-02T23:46:33.379Z,1.80
2019-02-02T23:49:01.577Z,1.80
2019-02-02T23:51:29.805Z,1.80
2019-02-02T23:53:57.906Z,1.80
2019-02-02T23:56:26.334Z,1.80
2019-02-02T23:58:54.376Z,1.80
